Time;durP1;ratioP1;P1;durP2;ratioP2;P2;SDS_P1;SDS_P2;PMS_P1;PMS_P2;Temp;Humidity;BMP_temperature;BMP_pressure;BME280_temperature;BME280_humidity;BME280_pressure;Samples;Min_cycle;Max_cycle;Signal;HPM_P1;HPM_P2
2022/06/25 00:00:48;;;;;;;6.30;5.81;;;;;;;20.88;69.99;100305.85;466881;113;923160;-74
2022/06/25 00:01:51;;;;;;;6.22;5.67;;;;;;;20.89;70.05;100312.23;466785;113;930485;-77
2022/06/25 00:02:55;;;;;;;5.26;4.75;;;;;;;20.89;70.00;100315.00;466833;113;922514;-75
2022/06/25 00:03:58;;;;;;;6.04;5.54;;;;;;;20.88;69.99;100308.63;466764;111;922705;-75
2022/06/25 00:06:25;;;;;;;8.83;4.98;;;;;;;20.88;70.00;100310.56;466646;113;923413;-74
2022/06/25 00:07:30;;;;;;;6.56;5.56;;;;;;;20.86;69.97;100315.56;466866;113;922624;-76
2022/06/25 00:08:35;;;;;;;5.99;5.46;;;;;;;20.86;69.97;100315.56;466834;113;923086;-75
2022/06/25 00:09:39;;;;;;;6.34;5.84;;;;;;;20.85;69.99;100311.95;466738;111;923138;-76
2022/06/25 00:10:42;;;;;;;6.21;5.66;;;;;;;20.86;69.98;100319.16;466949;113;922524;-76
2022/06/25 00:13:07;;;;;;;6.18;5.68;;;;;;;20.84;69.99;100324.16;466729;113;922525;-74
2022/06/25 00:14:11;;;;;;;8.48;6.14;;;;;;;20.83;70.01;100321.69;466840;111;922677;-74
2022/06/25 00:15:15;;;;;;;7.05;6.48;;;;;;;20.81;70.02;100320.03;466855;113;923253;-75
2022/06/25 00:16:18;;;;;;;6.62;6.06;;;;;;;20.80;70.03;100326.69;466852;113;922600;-75
2022/06/25 00:17:22;;;;;;;6.64;6.04;;;;;;;20.79;70.00;100325.02;466845;113;930520;-73
2022/06/25 00:18:25;;;;;;;7.34;6.59;;;;;;;20.78;70.05;100330.88;466936;113;922614;-75
2022/06/25 00:19:29;;;;;;;6.66;6.15;;;;;;;20.78;70.07;100323.36;466853;111;922719;-75
2022/06/25 00:20:32;;;;;;;7.66;6.96;;;;;;;20.76;70.04;100322.84;466801;113;931113;-75
2022/06/25 00:21:35;;;;;;;7.13;6.44;;;;;;;20.76;70.04;100322.02;466924;113;922603;-75
2022/06/25 00:22:39;;;;;;;6.89;6.33;;;;;;;20.75;70.07;100321.19;466859;113;922460;-76
2022/06/25 00:23:42;;;;;;;6.67;6.13;;;;;;;20.73;70.09;100320.63;466896;111;922647;-76
2022/06/25 00:24:45;;;;;;;7.66;7.04;;;;;;;20.73;70.11;100330.92;466995;113;922580;-76
2022/06/25 00:25:49;;;;;;;7.49;6.34;;;;;;;20.72;70.13;100332.86;466976;113;923421;-74
2022/06/25 00:26:52;;;;;;;7.44;6.53;;;;;;;20.70;70.08;100326.77;466928;113;922595;-75
2022/06/25 00:27:55;;;;;;;7.69;6.96;;;;;;;20.70;70.09;100326.77;466961;113;922472;-74
2022/06/25 00:28:59;;;;;;;7.83;6.79;;;;;;;20.70;70.16;100328.70;466140;112;923105;-75
2022/06/25 00:30:03;;;;;;;7.98;6.88;;;;;;;20.69;70.10;100329.81;465227;114;922600;-74
2022/06/25 00:31:06;;;;;;;7.21;6.56;;;;;;;20.68;70.08;100330.92;465985;113;922556;-75
2022/06/25 00:32:10;;;;;;;7.18;6.58;;;;;;;20.67;70.14;100337.61;466118;114;930521;-76
2022/06/25 00:33:13;;;;;;;7.08;6.34;;;;;;;20.66;70.11;100331.23;466010;114;922854;-74
2022/06/25 00:34:17;;;;;;;6.81;6.29;;;;;;;20.64;70.14;100325.14;466045;112;930504;-74
2022/06/25 00:35:20;;;;;;;7.62;6.07;;;;;;;20.64;70.14;100327.91;466218;114;923058;-73
2022/06/25 00:36:24;;;;;;;6.37;5.81;;;;;;;20.63;70.21;100329.02;465920;114;922441;-75
2022/06/25 00:37:28;;;;;;;6.78;6.24;;;;;;;20.61;70.19;100333.21;466048;113;923079;-75
2022/06/25 00:38:31;;;;;;;9.08;6.37;;;;;;;20.61;70.20;100335.98;466161;114;922659;-76
2022/06/25 00:39:36;;;;;;;6.56;6.05;;;;;;;20.59;70.20;100330.72;466126;112;922536;-74
2022/06/25 00:40:39;;;;;;;6.94;6.32;;;;;;;20.57;70.22;100334.88;465961;113;922848;-74
2022/06/25 00:41:42;;;;;;;6.70;6.01;;;;;;;20.57;70.26;100338.48;465954;114;930430;-75
2022/06/25 00:42:48;;;;;;;7.05;6.41;;;;;;;20.55;70.26;100343.50;466054;114;923342;-75
2022/06/25 00:43:51;;;;;;;6.64;5.86;;;;;;;20.54;70.29;100338.23;465977;114;923015;-74
2022/06/25 00:44:55;;;;;;;6.61;5.58;;;;;;;20.53;70.32;100336.57;466068;113;923137;-74
2022/06/25 00:45:59;;;;;;;6.90;6.21;;;;;;;20.52;70.32;100343.22;466012;114;930990;-74
2022/06/25 00:47:02;;;;;;;5.63;5.24;;;;;;;20.51;70.34;100338.82;466061;113;922632;-75
2022/06/25 00:48:06;;;;;;;6.03;4.91;;;;;;;20.50;70.37;100339.92;466092;114;922801;-75
2022/06/25 00:49:09;;;;;;;6.36;5.15;;;;;;;20.49;70.39;100343.80;466052;112;922583;-74
2022/06/25 00:50:13;;;;;;;5.78;5.26;;;;;;;20.48;70.46;100342.14;465976;113;930450;-75
2022/06/25 00:51:18;;;;;;;5.66;4.74;;;;;;;20.46;70.33;100342.42;466081;113;930630;-75
2022/06/25 00:52:24;;;;;;;5.29;4.91;;;;;;;20.45;70.32;100343.56;465940;114;922491;-76
2022/06/25 00:53:32;;;;;;;5.02;4.56;;;;;;;20.42;70.36;100337.75;465854;114;930423;-74
2022/06/25 00:54:37;;;;;;;4.97;4.57;;;;;;;20.43;70.34;100339.41;465915;112;922646;-75
2022/06/25 00:55:43;;;;;;;5.15;4.74;;;;;;;20.40;70.33;100340.79;465946;113;922564;-74
2022/06/25 00:56:50;;;;;;;5.27;4.71;;;;;;;20.40;70.39;100335.25;465917;114;922535;-75
2022/06/25 00:57:57;;;;;;;5.14;4.74;;;;;;;20.39;70.39;100341.93;465988;114;922685;-75
2022/06/25 00:59:05;;;;;;;5.09;4.67;;;;;;;20.38;70.41;100341.10;465913;112;922713;-74
2022/06/25 01:00:14;;;;;;;4.78;4.38;;;;;;;20.37;70.42;100339.44;465924;114;923268;-75
2022/06/25 01:01:19;;;;;;;5.17;4.76;;;;;;;20.36;70.47;100340.55;465948;114;922995;-75
2022/06/25 01:02:22;;;;;;;5.39;4.67;;;;;;;20.36;70.38;100343.31;466083;113;922843;-76
2022/06/25 01:03:27;;;;;;;6.21;4.76;;;;;;;20.34;70.38;100345.53;466069;113;922578;-75
2022/06/25 01:04:31;;;;;;;4.82;4.44;;;;;;;20.32;70.40;100342.23;465962;112;922540;-76
2022/06/25 01:05:34;;;;;;;5.43;4.61;;;;;;;20.32;70.38;100350.55;466164;113;922972;-75
2022/06/25 01:06:38;;;;;;;4.76;4.29;;;;;;;20.31;70.42;100354.42;466036;114;922610;-76
2022/06/25 01:07:45;;;;;;;4.78;4.35;;;;;;;20.31;70.40;100346.11;466119;113;922555;-75
2022/06/25 01:08:48;;;;;;;4.85;4.51;;;;;;;20.32;70.39;100356.08;465915;112;922941;-75
2022/06/25 01:09:52;;;;;;;4.90;4.53;;;;;;;20.33;70.41;100356.91;466058;113;922526;-75
2022/06/25 01:10:57;;;;;;;4.44;4.10;;;;;;;20.33;70.37;100346.67;465987;113;922630;-75
2022/06/25 01:12:01;;;;;;;5.45;5.05;;;;;;;20.34;70.46;100353.04;466012;114;922547;-76
2022/06/25 01:13:04;;;;;;;4.77;4.40;;;;;;;20.35;70.35;100357.44;466064;113;922943;-76
2022/06/25 01:14:09;;;;;;;4.57;4.26;;;;;;;20.36;70.33;100357.16;466011;112;922946;-75
2022/06/25 01:15:20;;;;;;;5.19;4.80;;;;;;;20.36;70.35;100346.08;465884;114;930614;-75
2022/06/25 01:16:23;;;;;;;4.99;4.59;;;;;;;20.37;70.32;100347.75;466085;114;922444;-73
2022/06/25 01:17:28;;;;;;;4.57;4.21;;;;;;;20.39;70.34;100344.70;466041;113;922800;-75
2022/06/25 01:18:33;;;;;;;4.73;4.35;;;;;;;20.39;70.21;100355.77;465837;114;930485;-76
2022/06/25 01:19:37;;;;;;;4.86;4.41;;;;;;;20.40;70.21;100352.70;466010;112;922532;-75
2022/06/25 01:20:42;;;;;;;4.38;3.99;;;;;;;20.43;70.19;100353.25;466038;113;922955;-75
2022/06/25 01:21:46;;;;;;;4.73;4.43;;;;;;;20.43;70.19;100353.25;465883;114;922590;-75
2022/06/25 01:22:49;;;;;;;4.78;4.47;;;;;;;20.44;70.14;100352.98;466015;114;922449;-75
2022/06/25 01:23:53;;;;;;;5.27;4.86;;;;;;;20.47;70.11;100352.39;466023;112;922761;-75
2022/06/25 01:24:57;;;;;;;4.82;4.29;;;;;;;20.49;70.05;100355.72;465973;113;930514;-75
2022/06/25 01:26:00;;;;;;;6.37;5.61;;;;;;;20.51;69.99;100356.23;466023;114;926435;-74
2022/06/25 01:27:14;;;;;;;5.26;4.79;;;;;;;20.52;69.94;100351.53;466069;114;922595;-74
2022/06/25 01:28:17;;;;;;;4.74;4.25;;;;;;;20.53;69.91;100359.56;465954;114;923042;-75
2022/06/25 01:29:21;;;;;;;4.82;4.47;;;;;;;20.55;69.91;100353.74;460634;113;922990;-74
2022/06/25 01:30:25;;;;;;;5.15;4.82;;;;;;;20.56;69.91;100358.17;439903;120;930528;-76
2022/06/25 01:31:29;;;;;;;4.96;4.56;;;;;;;20.56;69.78;100356.23;449519;118;923453;-75
2022/06/25 01:32:33;;;;;;;4.86;4.55;;;;;;;20.57;69.76;100357.03;449518;118;922588;-76
2022/06/25 01:33:36;;;;;;;5.09;4.62;;;;;;;20.57;69.78;100357.87;449577;118;922672;-75
2022/06/25 01:34:40;;;;;;;5.58;5.18;;;;;;;20.58;69.68;100355.93;449501;118;922833;-73
2022/06/25 01:35:43;;;;;;;5.86;5.16;;;;;;;20.58;69.61;100358.70;449630;118;922647;-74
2022/06/25 01:36:47;;;;;;;7.09;4.76;;;;;;;20.59;69.58;100349.28;449636;118;923043;-75
2022/06/25 01:37:52;;;;;;;5.33;4.89;;;;;;;20.60;69.56;100356.48;449460;118;922655;-75
2022/06/25 01:38:55;;;;;;;5.25;4.66;;;;;;;20.59;69.56;100355.65;449528;118;923110;-74
2022/06/25 01:39:59;;;;;;;5.27;4.78;;;;;;;20.59;69.51;100357.59;449505;118;922612;-76
2022/06/25 01:41:02;;;;;;;4.91;4.56;;;;;;;20.59;69.54;100360.36;449521;118;923115;-76
2022/06/25 01:42:06;;;;;;;5.61;5.18;;;;;;;20.59;69.51;100355.65;449574;118;923009;-74
2022/06/25 01:43:10;;;;;;;5.21;4.81;;;;;;;20.59;69.48;100350.11;449542;118;923091;-75
2022/06/25 01:44:13;;;;;;;4.65;4.35;;;;;;;20.60;69.42;100359.25;448816;118;930584;-76
2022/06/25 01:45:16;;;;;;;4.59;4.22;;;;;;;20.60;69.43;100362.02;448877;118;923021;-75
2022/06/25 01:46:21;;;;;;;5.24;4.61;;;;;;;20.59;69.47;100361.19;448798;118;922951;-75
2022/06/25 01:47:24;;;;;;;5.21;4.75;;;;;;;20.59;69.41;100368.67;448853;118;922657;-75
2022/06/25 01:48:28;;;;;;;5.05;4.67;;;;;;;20.60;69.42;100375.87;448904;118;922609;-75
2022/06/25 01:49:31;;;;;;;5.41;4.96;;;;;;;20.59;69.40;100366.73;448860;118;922562;-77
2022/06/25 01:50:36;;;;;;;4.70;4.31;;;;;;;20.60;69.36;100370.33;448815;118;922999;-76
2022/06/25 01:51:40;;;;;;;4.66;4.31;;;;;;;20.58;69.33;100362.30;448761;118;922892;-75
2022/06/25 01:52:43;;;;;;;4.58;4.21;;;;;;;20.58;69.33;100365.06;448845;118;922875;-76
2022/06/25 01:53:47;;;;;;;5.04;4.68;;;;;;;20.57;69.34;100365.34;448803;118;922621;-76
2022/06/25 01:54:50;;;;;;;4.88;4.48;;;;;;;20.56;69.36;100369.26;448880;118;922511;-75
2022/06/25 01:55:53;;;;;;;4.71;4.39;;;;;;;20.56;69.35;100366.48;448900;118;922852;-76
2022/06/25 01:56:57;;;;;;;4.76;4.38;;;;;;;20.56;69.35;100370.09;448780;118;922639;-76
2022/06/25 01:58:01;;;;;;;4.43;4.13;;;;;;;20.56;69.31;100372.86;448906;118;922645;-76
2022/06/25 01:59:05;;;;;;;4.26;3.92;;;;;;;20.57;69.27;100370.89;448747;118;922545;-75
2022/06/25 02:00:12;;;;;;;4.08;3.76;;;;;;;20.57;69.23;100380.03;448804;118;923714;-75
2022/06/25 02:01:20;;;;;;;3.80;3.54;;;;;;;20.58;69.18;100375.32;448492;118;922634;-76
2022/06/25 02:02:24;;;;;;;5.25;4.16;;;;;;;20.57;69.20;100373.66;448815;118;922937;-75
2022/06/25 02:03:27;;;;;;;4.42;4.10;;;;;;;20.56;69.15;100381.16;448722;118;930480;-75
2022/06/25 02:04:31;;;;;;;3.68;3.41;;;;;;;20.56;69.15;100381.16;448803;118;923157;-75
2022/06/25 02:06:58;;;;;;;3.91;3.64;;;;;;;20.55;69.17;100387.81;448695;118;923154;-75
2022/06/25 02:08:02;;;;;;;3.43;3.13;;;;;;;20.56;69.10;100391.42;448841;118;922740;-74
2022/06/25 02:09:06;;;;;;;4.20;3.90;;;;;;;20.55;69.08;100396.13;448717;118;930498;-75
2022/06/25 02:10:10;;;;;;;4.55;3.66;;;;;;;20.55;69.05;100398.89;449314;118;922292;-74
2022/06/25 02:11:14;;;;;;;3.69;3.21;;;;;;;20.54;68.96;100400.00;449746;118;922355;-76
2022/06/25 02:12:17;;;;;;;4.11;3.44;;;;;;;20.54;69.01;100401.94;449856;118;922274;-76
2022/06/25 02:13:21;;;;;;;3.16;2.91;;;;;;;20.54;69.03;100400.00;449695;118;922580;-76
2022/06/25 02:14:26;;;;;;;3.66;3.43;;;;;;;20.55;69.04;100406.37;449616;118;922313;-75
2022/06/25 02:15:29;;;;;;;3.88;3.51;;;;;;;20.56;68.93;100408.03;449476;118;930271;-76
2022/06/25 02:16:33;;;;;;;3.66;3.06;;;;;;;20.55;68.89;100407.20;449568;118;922441;-75
2022/06/25 02:17:38;;;;;;;3.75;3.44;;;;;;;20.55;68.83;100406.37;449459;118;923826;-74
2022/06/25 02:18:41;;;;;;;3.96;3.65;;;;;;;20.56;68.94;100405.27;449760;118;922408;-74
2022/06/25 02:19:45;;;;;;;4.94;3.36;;;;;;;20.56;68.86;100406.09;449786;118;922260;-75
2022/06/25 02:20:48;;;;;;;3.77;3.18;;;;;;;20.57;68.85;100406.90;449719;118;922580;-76
2022/06/25 02:21:51;;;;;;;3.41;3.21;;;;;;;20.57;68.80;100407.73;449705;118;922246;-75
2022/06/25 02:22:55;;;;;;;3.72;3.42;;;;;;;20.59;68.77;100408.28;441599;120;922840;-76
2022/06/25 02:23:58;;;;;;;3.46;3.24;;;;;;;20.59;68.77;100408.28;441861;118;922557;-75
2022/06/25 02:25:01;;;;;;;3.68;3.39;;;;;;;20.61;68.70;100408.01;449781;118;922216;-74
2022/06/25 02:26:05;;;;;;;3.78;3.42;;;;;;;20.62;68.64;100415.21;449714;118;922384;-74
2022/06/25 02:27:09;;;;;;;3.72;3.42;;;;;;;20.62;68.57;100404.92;449748;118;922464;-74
2022/06/25 02:28:13;;;;;;;2.82;2.72;;;;;;;20.62;68.52;100409.67;449571;118;930265;-74
2022/06/25 02:29:17;;;;;;;3.19;2.93;;;;;;;20.61;68.48;100411.61;453106;116;922664;-75
2022/06/25 02:30:22;;;;;;;3.40;3.20;;;;;;;20.62;68.41;100413.24;456550;116;922359;-75
2022/06/25 02:31:25;;;;;;;3.68;3.06;;;;;;;20.61;68.39;100411.61;458815;116;922266;-74
2022/06/25 02:32:33;;;;;;;3.89;3.59;;;;;;;20.61;68.33;100408.01;458848;116;924463;-75
2022/06/25 02:33:36;;;;;;;3.46;3.16;;;;;;;20.61;68.32;100414.38;453007;117;930350;-75
2022/06/25 02:34:40;;;;;;;3.19;2.96;;;;;;;20.62;68.34;100416.02;453527;116;922323;-76
2022/06/25 02:35:44;;;;;;;3.49;3.20;;;;;;;20.63;68.25;100425.98;453250;117;922423;-75
2022/06/25 02:36:50;;;;;;;3.26;3.02;;;;;;;20.64;68.24;100418.50;453434;116;930265;-75
2022/06/25 02:37:54;;;;;;;3.79;3.56;;;;;;;20.64;68.11;100427.64;453143;117;922403;-76
2022/06/25 02:38:59;;;;;;;3.83;3.53;;;;;;;20.65;68.09;100421.00;453477;116;922567;-75
2022/06/25 02:40:05;;;;;;;3.86;3.55;;;;;;;20.63;68.01;100423.22;464539;113;922708;-75
2022/06/25 02:41:09;;;;;;;5.61;3.71;;;;;;;20.62;67.97;100424.32;458333;116;922816;-76
2022/06/25 02:42:13;;;;;;;4.44;4.08;;;;;;;20.62;67.94;100420.75;458843;113;922648;-75
2022/06/25 02:43:17;;;;;;;4.30;3.90;;;;;;;20.60;67.91;100428.51;467594;113;922404;-76
2022/06/25 02:44:22;;;;;;;3.73;3.39;;;;;;;20.57;67.88;100431.83;465461;114;922372;-76
2022/06/25 02:45:28;;;;;;;5.54;3.92;;;;;;;20.56;67.90;100433.80;465393;114;922391;-77
2022/06/25 02:46:32;;;;;;;4.35;3.77;;;;;;;20.56;67.92;100436.57;465914;114;923340;-76
2022/06/25 02:47:37;;;;;;;3.84;3.54;;;;;;;20.55;67.90;100436.84;456778;116;922465;-76
2022/06/25 02:48:44;;;;;;;5.63;3.88;;;;;;;20.54;67.90;100440.72;457796;114;930287;-76
2022/06/25 02:49:49;;;;;;;4.10;3.79;;;;;;;20.53;67.92;100439.89;456854;116;922287;-74
2022/06/25 02:50:52;;;;;;;4.52;3.31;;;;;;;20.54;67.93;100435.18;457256;114;922416;-77
2022/06/25 02:51:55;;;;;;;4.43;3.94;;;;;;;20.54;67.93;100440.72;465992;114;922710;-76
2022/06/25 02:52:59;;;;;;;4.61;4.14;;;;;;;20.54;67.99;100432.41;466017;114;922894;-76
2022/06/25 02:54:02;;;;;;;5.33;4.46;;;;;;;20.54;67.97;100435.18;465888;114;922269;-76
2022/06/25 02:55:07;;;;;;;5.62;4.52;;;;;;;20.54;68.01;100438.78;465994;114;922328;-76
2022/06/25 02:59:00;;;;;;;5.27;4.74;;;;;;;20.57;67.91;100440.14;465970;114;922388;-75
2022/06/25 03:00:07;;;;;;;5.01;4.61;;;;;;;20.56;68.00;100444.05;465083;114;922376;-74
2022/06/25 03:01:10;;;;;;;5.39;4.49;;;;;;;20.56;68.00;100447.65;465961;114;922223;-75
2022/06/25 03:02:14;;;;;;;6.89;4.86;;;;;;;20.58;68.04;100445.41;466057;114;922648;-75
2022/06/25 03:03:19;;;;;;;6.24;4.77;;;;;;;20.59;68.04;100441.53;465962;114;922154;-75
2022/06/25 03:04:25;;;;;;;5.02;4.65;;;;;;;20.62;68.02;100445.69;466040;114;922268;-75
2022/06/25 03:05:30;;;;;;;5.56;5.09;;;;;;;20.63;68.00;100442.61;465942;114;922948;-76
2022/06/25 03:06:34;;;;;;;6.13;5.49;;;;;;;20.65;67.97;100443.16;466059;114;922361;-75
2022/06/25 03:07:38;;;;;;;5.79;5.37;;;;;;;20.67;67.94;100440.95;466106;114;922488;-75
2022/06/25 03:08:41;;;;;;;6.06;5.56;;;;;;;20.69;67.93;100444.24;456724;116;930356;-75
2022/06/25 03:09:45;;;;;;;6.49;5.99;;;;;;;20.71;67.89;100449.51;457214;114;922543;-75
2022/06/25 03:10:49;;;;;;;5.86;5.36;;;;;;;20.74;67.84;100451.70;456178;116;922639;-76
2022/06/25 03:11:53;;;;;;;6.15;5.59;;;;;;;20.74;67.75;100449.75;456737;114;922997;-76
2022/06/25 03:12:56;;;;;;;5.84;5.38;;;;;;;20.75;67.73;100456.12;465484;114;922601;-74
2022/06/25 03:14:01;;;;;;;6.60;5.89;;;;;;;20.76;67.72;100452.25;465325;114;922624;-76
2022/06/25 03:15:05;;;;;;;6.62;5.94;;;;;;;20.77;67.65;100453.91;456156;116;930427;-76
2022/06/25 03:16:10;;;;;;;6.71;6.18;;;;;;;20.78;67.68;100450.03;456761;114;922856;-75
2022/06/25 03:17:13;;;;;;;7.02;6.39;;;;;;;20.79;67.61;100455.27;465358;114;922571;-75
2022/06/25 03:18:19;;;;;;;6.32;5.81;;;;;;;20.80;67.59;100445.84;462148;114;922808;-76
2022/06/25 03:19:40;;;;;;;9.00;8.06;;;;;;;20.81;67.58;100446.67;465141;114;923672;-75
2022/06/25 03:20:50;;;;;;;9.03;7.44;;;;;;;20.82;67.55;100451.11;463202;114;922716;-76
2022/06/25 03:21:53;;;;;;;7.96;7.24;;;;;;;20.80;67.42;100454.16;465155;114;922546;-76
2022/06/25 03:22:57;;;;;;;9.11;7.57;;;;;;;20.79;67.43;100443.35;465276;114;922783;-75
2022/06/25 03:24:03;;;;;;;7.97;7.15;;;;;;;20.77;67.40;100446.43;465324;114;923033;-76
2022/06/25 03:25:08;;;;;;;9.28;8.09;;;;;;;20.75;67.44;100454.19;465109;114;922739;-74
2022/06/25 03:26:13;;;;;;;8.77;7.81;;;;;;;20.75;67.48;100451.41;465156;114;923106;-75
2022/06/25 03:27:16;;;;;;;8.31;7.55;;;;;;;20.75;67.48;100456.12;456045;116;922950;-75
2022/06/25 03:28:22;;;;;;;10.02;7.78;;;;;;;20.75;67.54;100456.12;455967;116;923119;-76
2022/06/25 03:29:25;;;;;;;8.21;7.20;;;;;;;20.74;67.56;100455.30;457900;114;930534;-76
2022/06/25 03:30:30;;;;;;;8.49;7.43;;;;;;;20.74;67.55;100449.75;467092;113;930412;-75
2022/06/25 03:31:34;;;;;;;8.68;7.99;;;;;;;20.74;67.59;100462.78;467602;113;922521;-76
2022/06/25 03:32:39;;;;;;;8.16;7.53;;;;;;;20.73;67.57;100464.72;467239;113;922553;-77
2022/06/25 03:33:54;;;;;;;10.72;7.60;;;;;;;20.73;67.56;100470.26;466138;111;923287;-77
2022/06/25 03:35:11;;;;;;;8.88;8.08;;;;;;;20.73;67.58;100467.48;466547;113;922607;-77
2022/06/25 03:36:16;;;;;;;8.42;7.68;;;;;;;20.74;67.59;100468.32;465425;113;922567;-77
2022/06/25 03:37:21;;;;;;;9.81;8.88;;;;;;;20.73;67.59;100469.45;465800;114;922559;-76
2022/06/25 03:38:24;;;;;;;9.02;8.23;;;;;;;20.72;67.62;100468.63;457049;116;923147;-74
2022/06/25 03:39:28;;;;;;;8.68;7.77;;;;;;;20.70;67.58;100470.01;457385;114;923325;-76
2022/06/25 03:40:32;;;;;;;8.41;7.51;;;;;;;20.67;67.63;100465.88;465775;114;923222;-76
2022/06/25 03:41:36;;;;;;;8.03;7.29;;;;;;;20.66;67.71;100461.45;465813;114;922583;-76
2022/06/25 03:42:41;;;;;;;8.55;7.82;;;;;;;20.65;67.82;100456.19;464616;114;922667;-75
2022/06/25 03:43:47;;;;;;;7.91;7.11;;;;;;;20.67;67.86;100467.83;466640;111;922566;-76
2022/06/25 03:44:52;;;;;;;7.56;6.89;;;;;;;20.67;67.98;100468.66;467379;113;923243;-76
2022/06/25 03:45:57;;;;;;;8.75;7.30;;;;;;;20.67;67.86;100468.66;466929;113;922749;-76
2022/06/25 03:47:01;;;;;;;8.21;7.49;;;;;;;20.66;67.99;100477.24;467566;113;922621;-76
2022/06/25 03:48:05;;;;;;;7.95;6.61;;;;;;;20.68;67.94;100475.00;467545;113;922496;-73
2022/06/25 03:49:11;;;;;;;9.41;8.39;;;;;;;20.68;67.96;100475.83;467096;111;922493;-74
2022/06/25 03:50:31;;;;;;;7.99;7.14;;;;;;;20.70;67.88;100472.78;466401;113;922862;-74
2022/06/25 03:51:34;;;;;;;8.45;7.66;;;;;;;20.68;67.76;100473.05;467590;113;922544;-74
2022/06/25 03:52:38;;;;;;;7.99;7.17;;;;;;;20.67;67.76;100470.59;467628;113;930540;-74
2022/06/25 03:53:43;;;;;;;9.02;8.14;;;;;;;20.66;67.80;100468.93;467436;111;922543;-74
2022/06/25 03:54:46;;;;;;;8.60;7.87;;;;;;;20.67;67.85;100470.59;467534;113;922659;-75
2022/06/25 03:55:51;;;;;;;8.53;7.82;;;;;;;20.67;67.83;100474.20;467423;113;922573;-75
2022/06/25 03:56:58;;;;;;;7.67;7.03;;;;;;;20.67;67.81;100473.36;467339;113;930539;-76
2022/06/25 03:58:03;;;;;;;8.30;6.77;;;;;;;20.64;67.78;100460.89;466878;113;923079;-75
2022/06/25 03:59:08;;;;;;;6.99;6.37;;;;;;;20.64;67.81;100471.14;467138;111;923102;-74
2022/06/25 04:00:14;;;;;;;7.47;6.18;;;;;;;20.60;67.88;100465.35;467418;113;922981;-75
2022/06/25 04:01:23;;;;;;;6.62;6.08;;;;;;;20.60;67.91;100467.30;466987;113;922503;-75
2022/06/25 04:02:26;;;;;;;6.76;6.06;;;;;;;20.61;67.91;100472.56;467339;113;922556;-74
2022/06/25 04:03:48;;;;;;;5.94;5.33;;;;;;;20.60;67.83;100476.44;467386;111;922988;-75
2022/06/25 04:04:51;;;;;;;6.37;5.86;;;;;;;20.60;67.81;100481.97;467497;113;922600;-74
2022/06/25 04:05:55;;;;;;;5.81;5.38;;;;;;;20.59;67.75;100480.31;461007;115;922617;-75
2022/06/25 04:07:03;;;;;;;6.61;6.11;;;;;;;20.58;67.72;100484.19;461577;113;923361;-76
2022/06/25 04:08:08;;;;;;;6.74;6.23;;;;;;;20.60;67.71;100483.91;467313;113;922568;-75
2022/06/25 04:09:12;;;;;;;6.49;5.89;;;;;;;20.58;67.62;100478.65;467443;111;923017;-75
2022/06/25 04:10:16;;;;;;;6.48;5.99;;;;;;;20.59;67.57;100482.25;467351;113;930647;-75
2022/06/25 04:11:20;;;;;;;5.79;5.39;;;;;;;20.58;67.49;100481.42;467460;113;922980;-75
2022/06/25 04:12:25;;;;;;;6.91;5.87;;;;;;;20.58;67.57;100483.36;467112;113;922689;-75
2022/06/25 04:13:29;;;;;;;6.63;6.04;;;;;;;20.58;67.40;100480.58;467469;113;922645;-76
2022/06/25 04:14:32;;;;;;;6.47;5.97;;;;;;;20.58;67.40;100480.58;467324;111;930519;-76
2022/06/25 04:15:36;;;;;;;6.79;6.29;;;;;;;20.57;67.48;100485.30;467574;113;923171;-75
2022/06/25 04:16:40;;;;;;;6.56;5.61;;;;;;;20.60;67.47;100483.91;467456;113;922440;-75
2022/06/25 04:17:45;;;;;;;8.03;7.43;;;;;;;20.61;67.43;100488.34;467117;113;923356;-76
2022/06/25 04:18:49;;;;;;;8.89;8.19;;;;;;;20.64;67.25;100491.37;467486;111;922586;-76
2022/06/25 04:19:54;;;;;;;8.89;8.29;;;;;;;20.65;67.12;100490.27;467379;113;922567;-76
2022/06/25 04:20:58;;;;;;;6.22;5.74;;;;;;;20.66;66.96;100504.95;467474;113;922853;-75
2022/06/25 04:22:02;;;;;;;5.41;5.01;;;;;;;20.67;66.92;100490.82;467396;113;922667;-76
2022/06/25 04:23:06;;;;;;;5.72;5.21;;;;;;;20.70;66.88;100494.95;467385;113;930499;-76
2022/06/25 04:24:10;;;;;;;5.47;5.06;;;;;;;20.70;66.82;100489.41;467405;111;922584;-76
2022/06/25 04:25:13;;;;;;;5.07;4.64;;;;;;;20.72;66.75;100492.73;467462;113;930635;-76
2022/06/25 04:26:18;;;;;;;4.43;4.03;;;;;;;20.74;66.70;100496.86;453094;117;922638;-75
2022/06/25 04:30:10;;;;;;;4.15;3.85;;;;;;;20.81;66.44;100486.30;464704;112;922701;-75
2022/06/25 04:31:15;;;;;;;5.13;4.59;;;;;;;20.85;66.31;100483.78;466766;113;922658;-75
2022/06/25 04:32:19;;;;;;;4.61;4.22;;;;;;;20.87;66.27;100481.56;466785;113;930479;-75
2022/06/25 04:33:27;;;;;;;4.79;4.43;;;;;;;20.90;66.24;100485.69;455647;113;923041;-75
2022/06/25 04:34:32;;;;;;;5.02;4.62;;;;;;;20.93;66.18;100487.91;458396;113;923056;-75
2022/06/25 04:35:36;;;;;;;4.94;4.52;;;;;;;20.96;66.09;100490.93;458764;115;922514;-75
2022/06/25 04:36:41;;;;;;;6.03;5.17;;;;;;;20.97;65.95;100494.53;458207;115;922595;-75
2022/06/25 04:37:47;;;;;;;4.25;3.93;;;;;;;20.98;65.84;100502.57;458493;115;922574;-75
2022/06/25 04:38:51;;;;;;;5.06;4.56;;;;;;;21.00;65.76;100500.36;458746;115;922622;-76
2022/06/25 04:39:55;;;;;;;5.04;4.57;;;;;;;21.01;65.68;100504.76;458780;115;922643;-75
2022/06/25 04:40:58;;;;;;;4.84;4.32;;;;;;;21.02;65.64;100502.81;458694;115;930492;-78
2022/06/25 04:42:03;;;;;;;4.13;3.76;;;;;;;21.03;65.57;100508.09;455871;116;923204;-76
2022/06/25 04:43:07;;;;;;;4.09;3.78;;;;;;;21.06;65.56;100509.47;448652;117;930453;-74
2022/06/25 04:44:10;;;;;;;4.20;3.90;;;;;;;21.07;65.51;100509.16;457220;114;922964;-76
2022/06/25 04:45:14;;;;;;;4.33;3.92;;;;;;;21.10;65.44;100510.55;465962;114;930518;-75
2022/06/25 04:46:20;;;;;;;4.31;3.92;;;;;;;21.11;65.39;100518.59;464964;114;923198;-75
2022/06/25 04:47:24;;;;;;;5.97;4.17;;;;;;;21.13;65.31;100515.51;466047;114;922795;-76
2022/06/25 04:48:29;;;;;;;5.27;4.88;;;;;;;21.14;65.24;100514.40;465003;114;923240;-76
2022/06/25 04:49:50;;;;;;;4.26;3.94;;;;;;;21.15;65.15;100514.16;458562;115;923013;-76
2022/06/25 04:50:54;;;;;;;4.11;3.84;;;;;;;21.16;65.09;100512.21;458725;115;922960;-74
2022/06/25 04:51:58;;;;;;;4.55;4.25;;;;;;;21.17;65.01;100516.65;458809;115;922628;-74
2022/06/25 04:53:01;;;;;;;6.17;4.28;;;;;;;21.17;65.13;100511.10;458743;115;930528;-74
2022/06/25 04:54:04;;;;;;;5.60;4.47;;;;;;;21.17;64.94;100511.10;458818;113;922511;-74
2022/06/25 04:55:12;;;;;;;4.02;3.68;;;;;;;21.16;64.93;100510.27;458583;115;923165;-75
2022/06/25 04:56:16;;;;;;;4.73;4.25;;;;;;;21.16;64.90;100518.59;458695;115;923050;-76
2022/06/25 04:57:21;;;;;;;4.21;3.88;;;;;;;21.15;64.86;100521.64;458701;115;922557;-76
2022/06/25 04:58:32;;;;;;;3.72;3.49;;;;;;;21.14;64.98;100522.72;441686;119;922846;-76
2022/06/25 04:59:49;;;;;;;4.40;4.02;;;;;;;21.15;65.11;100516.92;455335;115;922678;-75
2022/06/25 05:00:54;;;;;;;5.43;4.97;;;;;;;21.17;65.05;100520.22;458095;115;922641;-75
2022/06/25 05:01:58;;;;;;;5.81;5.31;;;;;;;21.17;65.04;100523.00;458871;115;922667;-75
2022/06/25 05:03:03;;;;;;;5.21;4.81;;;;;;;21.19;64.96;100515.23;458178;115;922579;-74
2022/06/25 05:04:07;;;;;;;4.26;3.96;;;;;;;21.20;64.88;100524.38;458766;113;922552;-75
2022/06/25 05:05:10;;;;;;;4.74;4.23;;;;;;;21.20;64.87;100514.12;458802;115;922996;-75
2022/06/25 05:06:14;;;;;;;6.97;4.09;;;;;;;21.23;64.82;100517.45;458821;115;922571;-75
2022/06/25 05:07:18;;;;;;;4.92;4.21;;;;;;;21.25;64.78;100517.97;458782;115;922509;-75